sensor_id;sensor_type;location;lat;lon;timestamp;pressure;altitude;pressure_sealevel;temperature;humidity
8292;BME280;4184;42.724;23.308;2022-09-09T00:01:02;95607.19;;;20.43;54.72
8292;BME280;4184;42.724;23.308;2022-09-09T00:03:37;95602.94;;;20.42;54.98
8292;BME280;4184;42.724;23.308;2022-09-09T00:06:15;95602.28;;;20.40;55.00
8292;BME280;4184;42.724;23.308;2022-09-09T00:08:52;95594.59;;;20.38;55.12
8292;BME280;4184;42.724;23.308;2022-09-09T00:11:26;95595.78;;;20.36;55.16
8292;BME280;4184;42.724;23.308;2022-09-09T00:13:58;95598.78;;;20.33;55.26
8292;BME280;4184;42.724;23.308;2022-09-09T00:16:32;95599.16;;;20.30;55.54
8292;BME280;4184;42.724;23.308;2022-09-09T00:19:07;95605.59;;;20.27;55.87
8292;BME280;4184;42.724;23.308;2022-09-09T00:21:38;95591.03;;;20.25;55.77
8292;BME280;4184;42.724;23.308;2022-09-09T00:24:24;95581.91;;;20.21;55.88
8292;BME280;4184;42.724;23.308;2022-09-09T00:26:57;95577.06;;;20.18;56.02
8292;BME280;4184;42.724;23.308;2022-09-09T00:29:33;95576.44;;;20.16;55.83
8292;BME280;4184;42.724;23.308;2022-09-09T00:32:12;95575.34;;;20.10;56.38
8292;BME280;4184;42.724;23.308;2022-09-09T00:34:46;95578.53;;;20.05;56.29
8292;BME280;4184;42.724;23.308;2022-09-09T00:37:15;95579.31;;;19.99;56.52
8292;BME280;4184;42.724;23.308;2022-09-09T00:39:46;95561.84;;;19.92;56.67
8292;BME280;4184;42.724;23.308;2022-09-09T00:42:16;95569.09;;;19.90;57.05
8292;BME280;4184;42.724;23.308;2022-09-09T00:44:53;95568.69;;;19.86;56.83
8292;BME280;4184;42.724;23.308;2022-09-09T00:47:43;95566.44;;;19.83;57.03
8292;BME280;4184;42.724;23.308;2022-09-09T00:53:30;95570.69;;;19.84;56.75
8292;BME280;4184;42.724;23.308;2022-09-09T00:56:07;95569.31;;;19.88;56.88
8292;BME280;4184;42.724;23.308;2022-09-09T00:58:36;95571.13;;;19.88;56.92
8292;BME280;4184;42.724;23.308;2022-09-09T01:01:07;95568.28;;;19.89;56.76
8292;BME280;4184;42.724;23.308;2022-09-09T01:03:38;95559.44;;;19.90;56.71
8292;BME280;4184;42.724;23.308;2022-09-09T01:06:19;95565.69;;;19.89;56.77
8292;BME280;4184;42.724;23.308;2022-09-09T01:09:10;95568.50;;;19.88;56.93
8292;BME280;4184;42.724;23.308;2022-09-09T01:11:52;95571.31;;;19.86;56.84
8292;BME280;4184;42.724;23.308;2022-09-09T01:14:35;95579.56;;;19.83;57.00
8292;BME280;4184;42.724;23.308;2022-09-09T01:17:12;95576.28;;;19.81;57.18
8292;BME280;4184;42.724;23.308;2022-09-09T01:19:50;95574.84;;;19.78;57.06
8292;BME280;4184;42.724;23.308;2022-09-09T01:22:29;95580.28;;;19.77;57.39
8292;BME280;4184;42.724;23.308;2022-09-09T01:28:22;95568.53;;;19.73;57.37
8292;BME280;4184;42.724;23.308;2022-09-09T01:30:52;95570.53;;;19.71;57.58
8292;BME280;4184;42.724;23.308;2022-09-09T01:33:20;95568.91;;;19.70;57.55
8292;BME280;4184;42.724;23.308;2022-09-09T01:35:51;95585.03;;;19.67;57.63
8292;BME280;4184;42.724;23.308;2022-09-09T01:38:22;95589.47;;;19.66;57.88
8292;BME280;4184;42.724;23.308;2022-09-09T01:40:51;95586.03;;;19.66;57.87
8292;BME280;4184;42.724;23.308;2022-09-09T01:43:20;95592.25;;;19.65;57.90
8292;BME280;4184;42.724;23.308;2022-09-09T01:45:50;95589.63;;;19.65;57.98
8292;BME280;4184;42.724;23.308;2022-09-09T01:48:22;95594.00;;;19.58;57.84
8292;BME280;4184;42.724;23.308;2022-09-09T01:50:50;95590.94;;;19.54;58.04
8292;BME280;4184;42.724;23.308;2022-09-09T01:53:19;95595.31;;;19.53;58.10
8292;BME280;4184;42.724;23.308;2022-09-09T01:55:55;95595.31;;;19.53;58.39
8292;BME280;4184;42.724;23.308;2022-09-09T01:58:34;95594.53;;;19.53;58.28
8292;BME280;4184;42.724;23.308;2022-09-09T02:01:11;95593.72;;;19.52;58.58
8292;BME280;4184;42.724;23.308;2022-09-09T02:03:47;95590.47;;;19.50;58.41
8292;BME280;4184;42.724;23.308;2022-09-09T02:06:26;95590.47;;;19.50;58.65
8292;BME280;4184;42.724;23.308;2022-09-09T02:08:56;95583.59;;;19.49;58.58
8292;BME280;4184;42.724;23.308;2022-09-09T02:11:27;95581.13;;;19.48;58.29
8292;BME280;4184;42.724;23.308;2022-09-09T02:14:00;95575.06;;;19.47;58.61
8292;BME280;4184;42.724;23.308;2022-09-09T02:16:32;95575.25;;;19.46;58.83
8292;BME280;4184;42.724;23.308;2022-09-09T02:19:08;95568.56;;;19.43;59.02
8292;BME280;4184;42.724;23.308;2022-09-09T02:21:41;95568.75;;;19.42;58.66
8292;BME280;4184;42.724;23.308;2022-09-09T02:24:09;95570.75;;;19.40;58.64
8292;BME280;4184;42.724;23.308;2022-09-09T02:26:41;95573.56;;;19.38;58.93
8292;BME280;4184;42.724;23.308;2022-09-09T02:29:14;95586.22;;;19.35;59.14
8292;BME280;4184;42.724;23.308;2022-09-09T02:31:43;95587.41;;;19.32;59.34
8292;BME280;4184;42.724;23.308;2022-09-09T02:34:14;95584.13;;;19.30;59.23
8292;BME280;4184;42.724;23.308;2022-09-09T02:36:43;95597.25;;;19.30;59.38
8292;BME280;4184;42.724;23.308;2022-09-09T02:39:13;95595.00;;;19.27;59.48
8292;BME280;4184;42.724;23.308;2022-09-09T02:41:42;95598.63;;;19.26;59.66
8292;BME280;4184;42.724;23.308;2022-09-09T02:44:13;95595.38;;;19.24;59.34
8292;BME280;4184;42.724;23.308;2022-09-09T02:47:03;95597.72;;;19.19;59.30
8292;BME280;4184;42.724;23.308;2022-09-09T02:49:43;95602.16;;;19.18;59.50
8292;BME280;4184;42.724;23.308;2022-09-09T02:52:17;95590.88;;;19.18;59.48
8292;BME280;4184;42.724;23.308;2022-09-09T02:54:46;95591.84;;;19.17;59.82
8292;BME280;4184;42.724;23.308;2022-09-09T02:57:19;95597.28;;;19.15;59.57
8292;BME280;4184;42.724;23.308;2022-09-09T02:59:58;95591.38;;;19.13;59.77
8292;BME280;4184;42.724;23.308;2022-09-09T03:02:26;95589.56;;;19.14;59.38
8292;BME280;4184;42.724;23.308;2022-09-09T03:04:54;95594.19;;;19.12;59.69
8292;BME280;4184;42.724;23.308;2022-09-09T03:07:21;95602.06;;;19.12;59.85
8292;BME280;4184;42.724;23.308;2022-09-09T03:09:49;95602.06;;;19.12;59.46
8292;BME280;4184;42.724;23.308;2022-09-09T03:12:17;95603.03;;;19.11;59.60
8292;BME280;4184;42.724;23.308;2022-09-09T03:14:44;95603.22;;;19.09;59.77
8292;BME280;4184;42.724;23.308;2022-09-09T03:17:14;95597.19;;;19.09;59.69
8292;BME280;4184;42.724;23.308;2022-09-09T03:19:41;95591.69;;;19.04;59.95
8292;BME280;4184;42.724;23.308;2022-09-09T03:22:10;95591.03;;;19.02;59.97
8292;BME280;4184;42.724;23.308;2022-09-09T03:24:39;95592.03;;;19.01;59.95
8292;BME280;4184;42.724;23.308;2022-09-09T03:27:07;95591.03;;;19.02;59.79
8292;BME280;4184;42.724;23.308;2022-09-09T03:29:34;95594.66;;;19.01;59.72
8292;BME280;4184;42.724;23.308;2022-09-09T03:32:02;95587.44;;;19.03;60.09
8292;BME280;4184;42.724;23.308;2022-09-09T03:34:32;95584.19;;;19.01;59.89
8292;BME280;4184;42.724;23.308;2022-09-09T03:37:03;95589.59;;;18.99;59.78
8292;BME280;4184;42.724;23.308;2022-09-09T03:39:31;95590.59;;;18.98;59.86
8292;BME280;4184;42.724;23.308;2022-09-09T03:41:58;95586.50;;;18.96;60.03
8292;BME280;4184;42.724;23.308;2022-09-09T03:44:30;95592.31;;;18.91;60.01
8292;BME280;4184;42.724;23.308;2022-09-09T03:46:58;95592.66;;;18.88;60.24
8292;BME280;4184;42.724;23.308;2022-09-09T03:49:26;95599.09;;;18.85;60.05
8292;BME280;4184;42.724;23.308;2022-09-09T03:52:00;95600.06;;;18.84;60.37
8292;BME280;4184;42.724;23.308;2022-09-09T03:54:27;95600.44;;;18.81;60.31
8292;BME280;4184;42.724;23.308;2022-09-09T03:56:55;95594.34;;;18.81;60.18
8292;BME280;4184;42.724;23.308;2022-09-09T03:59:22;95602.75;;;18.76;60.70
8292;BME280;4184;42.724;23.308;2022-09-09T04:01:50;95606.38;;;18.75;60.81
8292;BME280;4184;42.724;23.308;2022-09-09T04:04:18;95601.94;;;18.76;60.78
8292;BME280;4184;42.724;23.308;2022-09-09T04:06:46;95602.75;;;18.76;60.74
8292;BME280;4184;42.724;23.308;2022-09-09T04:09:16;95601.50;;;18.72;60.81
8292;BME280;4184;42.724;23.308;2022-09-09T04:11:43;95606.75;;;18.72;60.58
8292;BME280;4184;42.724;23.308;2022-09-09T04:14:12;95604.75;;;18.74;60.58
8292;BME280;4184;42.724;23.308;2022-09-09T04:16:42;95595.72;;;18.77;60.71
8292;BME280;4184;42.724;23.308;2022-09-09T04:19:10;95594.72;;;18.78;60.61
8292;BME280;4184;42.724;23.308;2022-09-09T04:21:40;95597.63;;;18.83;60.78
8292;BME280;4184;42.724;23.308;2022-09-09T04:24:08;95594.09;;;18.90;60.31
8292;BME280;4184;42.724;23.308;2022-09-09T04:26:37;95594.47;;;19.02;60.22
8292;BME280;4184;42.724;23.308;2022-09-09T04:29:06;95604.78;;;19.18;59.67
8292;BME280;4184;42.724;23.308;2022-09-09T04:31:34;95611.97;;;19.31;59.36
8292;BME280;4184;42.724;23.308;2022-09-09T04:34:02;95608.66;;;19.37;59.26
8292;BME280;4184;42.724;23.308;2022-09-09T04:36:32;95605.66;;;19.40;59.17
8292;BME280;4184;42.724;23.308;2022-09-09T04:39:00;95604.84;;;19.40;59.45
8292;BME280;4184;42.724;23.308;2022-09-09T04:41:28;95603.66;;;19.42;59.20
8292;BME280;4184;42.724;23.308;2022-09-09T04:43:58;95605.47;;;19.42;59.54
8292;BME280;4184;42.724;23.308;2022-09-09T04:46:28;95603.84;;;19.41;59.62
8292;BME280;4184;42.724;23.308;2022-09-09T04:48:57;95609.53;;;19.44;59.42
8292;BME280;4184;42.724;23.308;2022-09-09T04:51:25;95606.72;;;19.46;59.32
8292;BME280;4184;42.724;23.308;2022-09-09T04:53:52;95598.66;;;19.47;59.52
8292;BME280;4184;42.724;23.308;2022-09-09T04:56:20;95589.84;;;19.48;59.53
8292;BME280;4184;42.724;23.308;2022-09-09T04:58:48;95589.84;;;19.48;59.21
8292;BME280;4184;42.724;23.308;2022-09-09T05:01:18;95600.56;;;19.53;59.05
8292;BME280;4184;42.724;23.308;2022-09-09T05:03:47;95603.09;;;19.62;58.83
8292;BME280;4184;42.724;23.308;2022-09-09T05:06:17;95598.38;;;19.72;58.68
8292;BME280;4184;42.724;23.308;2022-09-09T05:08:45;95581.53;;;19.81;58.36
8292;BME280;4184;42.724;23.308;2022-09-09T05:11:20;95575.16;;;19.90;58.42
8292;BME280;4184;42.724;23.308;2022-09-09T05:13:49;95587.81;;;20.01;58.23
8292;BME280;4184;42.724;23.308;2022-09-09T05:16:20;95590.91;;;20.33;57.53
8292;BME280;4184;42.724;23.308;2022-09-09T05:18:49;95592.56;;;20.90;56.26
8292;BME280;4184;42.724;23.308;2022-09-09T05:21:18;95580.38;;;21.51;54.85
8292;BME280;4184;42.724;23.308;2022-09-09T05:23:47;95578.91;;;22.10;53.66
8292;BME280;4184;42.724;23.308;2022-09-09T05:26:19;95571.25;;;22.68;52.41
8292;BME280;4184;42.724;23.308;2022-09-09T05:28:47;95578.66;;;23.24;51.34
8292;BME280;4184;42.724;23.308;2022-09-09T05:31:16;95572.22;;;23.71;50.30
8292;BME280;4184;42.724;23.308;2022-09-09T05:33:47;95575.63;;;24.10;49.06
8292;BME280;4184;42.724;23.308;2022-09-09T05:36:16;95575.97;;;24.20;48.63
8292;BME280;4184;42.724;23.308;2022-09-09T05:38:44;95578.50;;;24.01;49.16
8292;BME280;4184;42.724;23.308;2022-09-09T05:41:14;95582.75;;;23.71;49.60
8292;BME280;4184;42.724;23.308;2022-09-09T05:43:44;95584.06;;;23.42;50.29
8292;BME280;4184;42.724;23.308;2022-09-09T05:46:14;95578.66;;;23.17;50.55
8292;BME280;4184;42.724;23.308;2022-09-09T05:48:48;95581.56;;;22.96;50.94
8292;BME280;4184;42.724;23.308;2022-09-09T05:51:18;95587.84;;;22.75;51.21
8292;BME280;4184;42.724;23.308;2022-09-09T05:53:48;95589.88;;;22.60;51.23
8292;BME280;4184;42.724;23.308;2022-09-09T05:56:20;95576.31;;;22.43;51.55
8292;BME280;4184;42.724;23.308;2022-09-09T05:58:49;95581.38;;;22.31;51.68
8292;BME280;4184;42.724;23.308;2022-09-09T06:01:21;95593.13;;;22.22;52.20
8292;BME280;4184;42.724;23.308;2022-09-09T06:03:51;95596.34;;;22.11;52.35
8292;BME280;4184;42.724;23.308;2022-09-09T06:06:20;95599.16;;;22.03;52.39
8292;BME280;4184;42.724;23.308;2022-09-09T06:08:51;95597.28;;;21.97;52.41
8292;BME280;4184;42.724;23.308;2022-09-09T06:11:21;95596.69;;;21.95;52.65
8292;BME280;4184;42.724;23.308;2022-09-09T06:13:49;95593.44;;;21.92;52.91
8292;BME280;4184;42.724;23.308;2022-09-09T06:16:18;95591.81;;;21.91;52.90
8292;BME280;4184;42.724;23.308;2022-09-09T06:18:46;95599.31;;;21.88;52.87
8292;BME280;4184;42.724;23.308;2022-09-09T06:21:18;95597.88;;;21.85;53.07
8292;BME280;4184;42.724;23.308;2022-09-09T06:23:46;95600.53;;;21.85;53.05
8292;BME280;4184;42.724;23.308;2022-09-09T06:26:16;95603.97;;;21.86;52.85
8292;BME280;4184;42.724;23.308;2022-09-09T06:28:44;95610.03;;;21.86;52.99
8292;BME280;4184;42.724;23.308;2022-09-09T06:31:16;95608.03;;;21.88;52.70
8292;BME280;4184;42.724;23.308;2022-09-09T06:33:48;95601.75;;;21.89;52.73
8292;BME280;4184;42.724;23.308;2022-09-09T06:36:19;95593.84;;;21.89;52.50
8292;BME280;4184;42.724;23.308;2022-09-09T06:38:47;95586.56;;;21.91;52.56
8292;BME280;4184;42.724;23.308;2022-09-09T06:41:16;95583.53;;;21.95;52.48
8292;BME280;4184;42.724;23.308;2022-09-09T06:43:44;95587.38;;;21.99;52.62
8292;BME280;4184;42.724;23.308;2022-09-09T06:46:14;95576.47;;;22.02;52.52
8292;BME280;4184;42.724;23.308;2022-09-09T06:48:42;95582.97;;;22.06;52.31
8292;BME280;4184;42.724;23.308;2022-09-09T06:51:12;95588.25;;;22.06;52.14
8292;BME280;4184;42.724;23.308;2022-09-09T06:53:43;95594.31;;;22.06;52.31
8292;BME280;4184;42.724;23.308;2022-09-09T06:56:20;95589.66;;;22.08;52.22
8292;BME280;4184;42.724;23.308;2022-09-09T06:58:50;95589.84;;;22.13;51.92
8292;BME280;4184;42.724;23.308;2022-09-09T07:01:19;95597.19;;;22.25;51.94
8292;BME280;4184;42.724;23.308;2022-09-09T07:03:48;95599.22;;;22.36;51.52
8292;BME280;4184;42.724;23.308;2022-09-09T07:06:19;95589.47;;;22.43;51.14
8292;BME280;4184;42.724;23.308;2022-09-09T07:08:50;95600.00;;;22.49;51.30
8292;BME280;4184;42.724;23.308;2022-09-09T07:11:19;95595.56;;;22.57;50.87
8292;BME280;4184;42.724;23.308;2022-09-09T07:13:47;95593.94;;;22.69;50.65
8292;BME280;4184;42.724;23.308;2022-09-09T07:16:16;95585.63;;;22.78;50.83
8292;BME280;4184;42.724;23.308;2022-09-09T07:18:44;95591.72;;;22.92;50.42
8292;BME280;4184;42.724;23.308;2022-09-09T07:21:12;95585.81;;;23.03;49.94
8292;BME280;4184;42.724;23.308;2022-09-09T07:23:41;95587.41;;;23.11;49.78
8292;BME280;4184;42.724;23.308;2022-09-09T07:26:12;95579.28;;;23.19;49.61
8292;BME280;4184;42.724;23.308;2022-09-09T07:28:40;95582.66;;;23.33;49.57
8292;BME280;4184;42.724;23.308;2022-09-09T07:31:12;95586.66;;;23.49;49.29
8292;BME280;4184;42.724;23.308;2022-09-09T07:33:42;95579.53;;;23.69;48.49
8292;BME280;4184;42.724;23.308;2022-09-09T07:36:12;95572.25;;;24.27;47.85
8292;BME280;4184;42.724;23.308;2022-09-09T07:38:40;95576.38;;;25.16;46.22
8292;BME280;4184;42.724;23.308;2022-09-09T07:41:12;95567.63;;;26.01;44.50
8292;BME280;4184;42.724;23.308;2022-09-09T07:43:40;95568.81;;;26.93;43.12
8292;BME280;4184;42.724;23.308;2022-09-09T07:46:09;95575.94;;;27.92;41.63
8292;BME280;4184;42.724;23.308;2022-09-09T07:48:38;95574.91;;;28.88;40.17
8292;BME280;4184;42.724;23.308;2022-09-09T07:51:07;95574.16;;;29.70;39.04
8292;BME280;4184;42.724;23.308;2022-09-09T07:53:37;95576.78;;;30.41;37.92
8292;BME280;4184;42.724;23.308;2022-09-09T07:56:06;95575.28;;;30.87;37.29
8292;BME280;4184;42.724;23.308;2022-09-09T07:58:36;95574.34;;;31.08;36.75
8292;BME280;4184;42.724;23.308;2022-09-09T08:01:09;95564.59;;;31.29;36.31
8292;BME280;4184;42.724;23.308;2022-09-09T08:03:37;95561.28;;;31.12;36.46
8292;BME280;4184;42.724;23.308;2022-09-09T08:06:07;95564.84;;;30.86;36.88
8292;BME280;4184;42.724;23.308;2022-09-09T08:08:36;95563.38;;;30.68;37.19
8292;BME280;4184;42.724;23.308;2022-09-09T08:11:08;95567.19;;;30.45;37.67
8292;BME280;4184;42.724;23.308;2022-09-09T08:13:37;95569.69;;;30.24;37.67
8292;BME280;4184;42.724;23.308;2022-09-09T08:16:10;95562.59;;;30.08;37.97
8292;BME280;4184;42.724;23.308;2022-09-09T08:18:38;95564.47;;;30.08;37.91
8292;BME280;4184;42.724;23.308;2022-09-09T08:21:08;95563.28;;;30.26;37.49
8292;BME280;4184;42.724;23.308;2022-09-09T08:23:38;95565.72;;;30.59;37.48
8292;BME280;4184;42.724;23.308;2022-09-09T08:26:10;95571.88;;;30.97;36.44
8292;BME280;4184;42.724;23.308;2022-09-09T08:28:39;95566.44;;;31.24;36.27
8292;BME280;4184;42.724;23.308;2022-09-09T08:31:09;95556.63;;;31.39;35.99
8292;BME280;4184;42.724;23.308;2022-09-09T08:33:37;95560.41;;;31.43;35.71
8292;BME280;4184;42.724;23.308;2022-09-09T08:36:08;95556.00;;;31.22;36.06
8292;BME280;4184;42.724;23.308;2022-09-09T08:38:36;95559.69;;;31.11;36.29
8292;BME280;4184;42.724;23.308;2022-09-09T08:41:25;95559.88;;;30.99;36.60
8292;BME280;4184;42.724;23.308;2022-09-09T08:44:04;95551.72;;;30.74;36.84
8292;BME280;4184;42.724;23.308;2022-09-09T08:46:40;95545.34;;;30.53;37.30
8292;BME280;4184;42.724;23.308;2022-09-09T08:49:24;95542.53;;;30.33;37.12
8292;BME280;4184;42.724;23.308;2022-09-09T08:51:56;95544.56;;;30.52;37.16
8292;BME280;4184;42.724;23.308;2022-09-09T08:54:24;95545.91;;;30.87;36.67
8292;BME280;4184;42.724;23.308;2022-09-09T08:56:55;95545.84;;;31.19;36.00
8292;BME280;4184;42.724;23.308;2022-09-09T08:59:24;95550.28;;;31.56;35.75
8292;BME280;4184;42.724;23.308;2022-09-09T09:02:00;95544.00;;;31.87;35.26
8292;BME280;4184;42.724;23.308;2022-09-09T09:04:52;95548.00;;;31.90;35.29
8292;BME280;4184;42.724;23.308;2022-09-09T09:07:36;95548.81;;;31.90;34.96
8292;BME280;4184;42.724;23.308;2022-09-09T09:10:15;95543.47;;;32.00;34.59
8292;BME280;4184;42.724;23.308;2022-09-09T09:12:48;95548.31;;;32.14;34.56
8292;BME280;4184;42.724;23.308;2022-09-09T09:15:21;95546.50;;;32.29;34.43
8292;BME280;4184;42.724;23.308;2022-09-09T09:17:50;95548.06;;;32.20;34.89
8292;BME280;4184;42.724;23.308;2022-09-09T09:20:23;95538.94;;;32.21;35.00
8292;BME280;4184;42.724;23.308;2022-09-09T09:22:54;95539.75;;;32.17;34.73
8292;BME280;4184;42.724;23.308;2022-09-09T09:25:30;95533.28;;;31.87;35.22
8292;BME280;4184;42.724;23.308;2022-09-09T09:28:00;95547.03;;;31.43;35.85
8292;BME280;4184;42.724;23.308;2022-09-09T09:30:37;95537.47;;;31.05;36.41
8292;BME280;4184;42.724;23.308;2022-09-09T09:33:15;95541.50;;;30.66;36.98
8292;BME280;4184;42.724;23.308;2022-09-09T09:35:44;95539.63;;;30.34;37.34
8292;BME280;4184;42.724;23.308;2022-09-09T09:38:17;95528.22;;;30.12;38.01
8292;BME280;4184;42.724;23.308;2022-09-09T09:40:50;95529.22;;;30.06;38.25
8292;BME280;4184;42.724;23.308;2022-09-09T09:43:25;95526.81;;;30.04;38.04
8292;BME280;4184;42.724;23.308;2022-09-09T09:45:55;95525.44;;;30.02;37.83
8292;BME280;4184;42.724;23.308;2022-09-09T09:48:24;95521.25;;;29.84;37.66
8292;BME280;4184;42.724;23.308;2022-09-09T09:50:54;95523.66;;;29.58;38.60
8292;BME280;4184;42.724;23.308;2022-09-09T09:53:25;95512.88;;;29.26;39.13
8292;BME280;4184;42.724;23.308;2022-09-09T09:55:56;95513.53;;;28.95;39.75
8292;BME280;4184;42.724;23.308;2022-09-09T09:58:25;95506.50;;;28.72;39.91
8292;BME280;4184;42.724;23.308;2022-09-09T10:00:55;95507.94;;;28.58;39.99
8292;BME280;4184;42.724;23.308;2022-09-09T10:03:25;95505.66;;;28.50;40.30
8292;BME280;4184;42.724;23.308;2022-09-09T10:05:54;95511.47;;;28.46;40.35
8292;BME280;4184;42.724;23.308;2022-09-09T10:08:22;95515.91;;;28.41;40.49
8292;BME280;4184;42.724;23.308;2022-09-09T10:10:59;95518.22;;;28.37;41.07
8292;BME280;4184;42.724;23.308;2022-09-09T10:13:32;95520.75;;;28.27;40.82
8292;BME280;4184;42.724;23.308;2022-09-09T10:16:15;95531.09;;;28.12;41.63
8292;BME280;4184;42.724;23.308;2022-09-09T10:18:58;95534.78;;;27.94;41.56
8292;BME280;4184;42.724;23.308;2022-09-09T10:24:44;95535.94;;;27.58;42.07
8292;BME280;4184;42.724;23.308;2022-09-09T10:27:20;95536.69;;;27.42;42.41
8292;BME280;4184;42.724;23.308;2022-09-09T10:30:09;95538.56;;;27.30;43.04
8292;BME280;4184;42.724;23.308;2022-09-09T10:32:46;95537.09;;;27.22;42.90
8292;BME280;4184;42.724;23.308;2022-09-09T10:35:29;95531.88;;;27.15;43.17
8292;BME280;4184;42.724;23.308;2022-09-09T10:38:17;95539.75;;;27.10;43.29
8292;BME280;4184;42.724;23.308;2022-09-09T10:40:58;95537.44;;;27.02;43.42
8292;BME280;4184;42.724;23.308;2022-09-09T10:43:39;95538.34;;;26.96;43.67
8292;BME280;4184;42.724;23.308;2022-09-09T10:46:14;95538.81;;;26.93;43.81
8292;BME280;4184;42.724;23.308;2022-09-09T10:49:00;95533.41;;;26.88;43.77
8292;BME280;4184;42.724;23.308;2022-09-09T10:51:38;95543.44;;;26.86;43.84
8292;BME280;4184;42.724;23.308;2022-09-09T10:54:19;95541.00;;;26.84;43.80
8292;BME280;4184;42.724;23.308;2022-09-09T10:56:52;95536.97;;;26.82;43.96
8292;BME280;4184;42.724;23.308;2022-09-09T10:59:26;95540.09;;;26.79;44.00
8292;BME280;4184;42.724;23.308;2022-09-09T11:01:58;95528.91;;;26.77;44.10
8292;BME280;4184;42.724;23.308;2022-09-09T11:04:31;95525.13;;;26.73;44.44
8292;BME280;4184;42.724;23.308;2022-09-09T11:07:05;95525.34;;;26.71;44.22
8292;BME280;4184;42.724;23.308;2022-09-09T11:09:39;95534.56;;;26.68;44.37
8292;BME280;4184;42.724;23.308;2022-09-09T11:12:15;95531.22;;;26.61;44.58
8292;BME280;4184;42.724;23.308;2022-09-09T11:14:47;95528.47;;;26.56;44.71
8292;BME280;4184;42.724;23.308;2022-09-09T11:17:20;95524.63;;;26.52;44.84
8292;BME280;4184;42.724;23.308;2022-09-09T11:19:50;95515.06;;;26.51;44.99
8292;BME280;4184;42.724;23.308;2022-09-09T11:22:27;95515.63;;;26.53;44.99
8292;BME280;4184;42.724;23.308;2022-09-09T11:24:59;95511.50;;;26.57;45.04
8292;BME280;4184;42.724;23.308;2022-09-09T11:27:31;95519.91;;;26.66;44.77
8292;BME280;4184;42.724;23.308;2022-09-09T11:30:15;95512.44;;;26.75;44.57
8292;BME280;4184;42.724;23.308;2022-09-09T11:35:56;95492.44;;;26.84;44.43
8292;BME280;4184;42.724;23.308;2022-09-09T11:38:31;95482.16;;;26.87;44.49
8292;BME280;4184;42.724;23.308;2022-09-09T11:41:02;95479.31;;;26.89;44.67
8292;BME280;4184;42.724;23.308;2022-09-09T11:43:38;95475.16;;;26.93;44.65
8292;BME280;4184;42.724;23.308;2022-09-09T11:46:07;95469.38;;;26.96;44.38
8292;BME280;4184;42.724;23.308;2022-09-09T11:48:37;95457.16;;;26.95;44.52
8292;BME280;4184;42.724;23.308;2022-09-09T11:51:08;95454.25;;;26.96;44.38
8292;BME280;4184;42.724;23.308;2022-09-09T11:53:48;95444.44;;;26.97;44.77
8292;BME280;4184;42.724;23.308;2022-09-09T11:56:26;95454.97;;;26.92;44.80
8292;BME280;4184;42.724;23.308;2022-09-09T11:58:58;95457.84;;;26.90;44.63
8292;BME280;4184;42.724;23.308;2022-09-09T12:01:34;95446.53;;;26.95;44.70
8292;BME280;4184;42.724;23.308;2022-09-09T12:04:28;95449.31;;;27.00;44.62
8292;BME280;4184;42.724;23.308;2022-09-09T12:07:00;95447.91;;;27.09;44.70
8292;BME280;4184;42.724;23.308;2022-09-09T12:09:33;95444.63;;;27.19;44.57
8292;BME280;4184;42.724;23.308;2022-09-09T12:12:17;95429.50;;;27.19;44.59
8292;BME280;4184;42.724;23.308;2022-09-09T12:14:57;95429.38;;;27.26;44.41
8292;BME280;4184;42.724;23.308;2022-09-09T12:17:26;95423.28;;;27.25;44.53
8292;BME280;4184;42.724;23.308;2022-09-09T12:20:14;95414.97;;;27.22;44.64
8292;BME280;4184;42.724;23.308;2022-09-09T12:22:56;95414.19;;;27.21;44.59
8292;BME280;4184;42.724;23.308;2022-09-09T12:25:33;95423.03;;;27.27;44.62
8292;BME280;4184;42.724;23.308;2022-09-09T12:28:09;95418.38;;;27.34;44.73
8292;BME280;4184;42.724;23.308;2022-09-09T12:30:44;95418.25;;;27.41;44.29
8292;BME280;4184;42.724;23.308;2022-09-09T12:33:17;95415.44;;;27.47;44.50
8292;BME280;4184;42.724;23.308;2022-09-09T12:35:48;95402.47;;;27.51;44.19
8292;BME280;4184;42.724;23.308;2022-09-09T12:38:26;95408.50;;;27.46;44.85
8292;BME280;4184;42.724;23.308;2022-09-09T12:40:56;95402.75;;;27.38;44.72
8292;BME280;4184;42.724;23.308;2022-09-09T12:43:25;95397.84;;;27.30;45.10
8292;BME280;4184;42.724;23.308;2022-09-09T12:45:56;95401.47;;;27.23;45.09
8292;BME280;4184;42.724;23.308;2022-09-09T12:48:31;95395.69;;;27.26;45.12
8292;BME280;4184;42.724;23.308;2022-09-09T12:50:59;95405.25;;;27.27;44.84
8292;BME280;4184;42.724;23.308;2022-09-09T12:53:31;95400.50;;;27.30;44.69
8292;BME280;4184;42.724;23.308;2022-09-09T12:56:02;95398.41;;;27.32;45.14
8292;BME280;4184;42.724;23.308;2022-09-09T12:58:35;95395.84;;;27.37;45.28
8292;BME280;4184;42.724;23.308;2022-09-09T13:01:05;95380.03;;;27.42;45.03
8292;BME280;4184;42.724;23.308;2022-09-09T13:03:42;95371.09;;;27.48;45.11
8292;BME280;4184;42.724;23.308;2022-09-09T13:06:13;95376.06;;;27.44;45.12
8292;BME280;4184;42.724;23.308;2022-09-09T13:08:42;95377.25;;;27.37;45.29
8292;BME280;4184;42.724;23.308;2022-09-09T13:11:12;95389.09;;;27.29;45.41
8292;BME280;4184;42.724;23.308;2022-09-09T13:13:43;95388.75;;;27.25;45.45
8292;BME280;4184;42.724;23.308;2022-09-09T13:16:20;95382.97;;;27.28;45.29
8292;BME280;4184;42.724;23.308;2022-09-09T13:18:50;95371.38;;;27.35;45.24
8292;BME280;4184;42.724;23.308;2022-09-09T13:21:18;95367.78;;;27.41;45.09
8292;BME280;4184;42.724;23.308;2022-09-09T13:23:51;95360.63;;;27.41;44.90
8292;BME280;4184;42.724;23.308;2022-09-09T13:26:24;95347.59;;;27.40;45.01
8292;BME280;4184;42.724;23.308;2022-09-09T13:28:53;95349.66;;;27.38;45.38
8292;BME280;4184;42.724;23.308;2022-09-09T13:31:23;95345.19;;;27.38;45.50
8292;BME280;4184;42.724;23.308;2022-09-09T13:33:53;95349.66;;;27.38;45.32
8292;BME280;4184;42.724;23.308;2022-09-09T13:36:29;95343.47;;;27.32;45.51
8292;BME280;4184;42.724;23.308;2022-09-09T13:38:59;95346.28;;;27.25;45.90
8292;BME280;4184;42.724;23.308;2022-09-09T13:41:31;95347.22;;;27.19;45.83
8292;BME280;4184;42.724;23.308;2022-09-09T13:44:00;95342.06;;;27.13;45.69
8292;BME280;4184;42.724;23.308;2022-09-09T13:46:34;95345.44;;;27.08;46.28
8292;BME280;4184;42.724;23.308;2022-09-09T13:49:18;95330.81;;;27.06;46.09